createdAt,value
2022-11-15T00:02:56.613Z,7.15
2022-11-15T00:12:59.018Z,7.22
2022-11-15T00:23:01.345Z,7.29
2022-11-15T00:33:07.707Z,7.38
2022-11-15T00:43:10.028Z,7.43
2022-11-15T00:53:13.441Z,7.49
2022-11-15T01:03:15.917Z,7.53
2022-11-15T01:13:18.476Z,7.58
2022-11-15T01:23:20.873Z,7.61
2022-11-15T01:33:23.226Z,7.64
2022-11-15T01:43:29.529Z,7.67
2022-11-15T01:53:35.316Z,7.72
2022-11-15T02:03:59.332Z,7.74
2022-11-15T02:14:03.833Z,7.78
2022-11-15T02:24:26.086Z,7.77
2022-11-15T02:34:50.272Z,7.77
2022-11-15T02:44:57.008Z,7.77
2022-11-15T02:55:01.911Z,7.80
2022-11-15T03:05:10.715Z,7.87
2022-11-15T03:15:25.518Z,7.87
2022-11-15T03:25:31.181Z,7.90
2022-11-15T03:35:41.659Z,7.88
2022-11-15T03:46:02.359Z,7.89
2022-11-15T03:56:04.872Z,7.89
2022-11-15T04:06:07.489Z,7.88
2022-11-15T04:16:09.866Z,7.83
2022-11-15T04:26:19.700Z,7.77
2022-11-15T04:36:41.620Z,7.78
2022-11-15T04:46:43.977Z,7.77
2022-11-15T04:56:46.583Z,7.77
2022-11-15T05:06:50.992Z,7.74
2022-11-15T05:16:53.344Z,7.71
2022-11-15T05:26:55.607Z,7.68
2022-11-15T05:36:58.171Z,7.59
2022-11-15T05:47:00.879Z,7.55
2022-11-15T05:57:03.936Z,7.51
2022-11-15T06:07:06.660Z,7.49
2022-11-15T06:17:11.470Z,7.47
2022-11-15T06:27:14.229Z,7.39
2022-11-15T06:37:16.742Z,7.35
2022-11-15T06:47:19.396Z,7.36
2022-11-15T06:57:22.322Z,7.37
2022-11-15T07:07:25.407Z,7.42
2022-11-15T07:17:28.234Z,7.51
2022-11-15T07:27:30.657Z,7.60
2022-11-15T07:37:34.066Z,7.70
2022-11-15T07:47:36.950Z,7.78
2022-11-15T07:57:41.419Z,7.88
2022-11-15T08:07:45.946Z,7.98
2022-11-15T08:17:55.583Z,8.12
2022-11-15T08:28:01.514Z,8.29
2022-11-15T08:38:23.656Z,8.41
2022-11-15T08:48:28.933Z,8.52
2022-11-15T08:58:33.261Z,8.55
2022-11-15T09:08:48.227Z,8.62
2022-11-15T09:18:55.920Z,8.68
2022-11-15T09:29:01.536Z,8.75
2022-11-15T09:39:11.765Z,8.76
2022-11-15T09:49:20.765Z,8.82
2022-11-15T09:59:48.320Z,9.07
2022-11-15T10:20:20.630Z,9.39
2022-11-15T10:30:39.647Z,9.60
2022-11-15T10:40:46.025Z,9.79
2022-11-15T10:50:51.662Z,9.95
2022-11-15T11:00:56.664Z,10.20
2022-11-15T11:11:03.970Z,10.42
2022-11-15T11:21:15.601Z,10.62
2022-11-15T11:31:35.676Z,10.74
2022-11-15T11:42:12.728Z,10.85
2022-11-15T11:52:31.640Z,11.17
2022-11-15T12:03:23.701Z,11.42
2022-11-15T12:13:42.413Z,11.16
2022-11-15T12:23:54.027Z,10.93
2022-11-15T12:34:05.869Z,10.90
2022-11-15T12:44:35.907Z,10.87
2022-11-15T12:54:41.749Z,10.94
2022-11-15T13:04:58.196Z,10.98
2022-11-15T13:15:26.976Z,11.07
2022-11-15T13:26:12.047Z,10.97
2022-11-15T13:36:20.971Z,10.85
2022-11-15T13:46:30.541Z,10.81
2022-11-15T13:56:50.087Z,10.84
2022-11-15T14:06:59.937Z,10.88
2022-11-15T14:17:26.335Z,10.73
2022-11-15T14:27:33.139Z,10.66
2022-11-15T14:37:49.393Z,10.59
2022-11-15T14:47:55.331Z,10.48
2022-11-15T14:57:58.886Z,10.40
2022-11-15T15:08:02.904Z,10.32
2022-11-15T15:18:06.647Z,10.26
2022-11-15T15:28:10.011Z,10.14
2022-11-15T15:38:14.600Z,10.05
2022-11-15T15:48:18.575Z,9.95
2022-11-15T15:58:21.177Z,9.83
2022-11-15T16:08:31.930Z,9.75
2022-11-15T16:18:41.050Z,9.67
2022-11-15T16:28:43.983Z,9.55
2022-11-15T16:38:47.469Z,9.45
2022-11-15T16:48:51.898Z,9.43
2022-11-15T16:58:56.680Z,9.42
2022-11-15T17:09:00.401Z,9.41
2022-11-15T17:19:03.496Z,9.38
2022-11-15T17:29:08.602Z,9.48
2022-11-15T17:39:11.551Z,9.41
2022-11-15T17:49:14.393Z,9.37
2022-11-15T17:59:21.122Z,9.44
2022-11-15T18:09:26.332Z,9.46
2022-11-15T18:19:28.956Z,9.45
2022-11-15T18:29:34.242Z,9.49
2022-11-15T18:39:37.163Z,9.44
2022-11-15T18:49:39.788Z,9.43
2022-11-15T18:59:42.204Z,9.46
2022-11-15T19:09:46.077Z,9.39
2022-11-15T19:19:52.999Z,9.28
2022-11-15T19:29:57.385Z,9.19
2022-11-15T19:51:42.978Z,9.06
2022-11-15T20:01:48.930Z,9.02
2022-11-15T20:11:52.972Z,9.01
2022-11-15T20:21:56.466Z,9.00
2022-11-15T20:31:59.316Z,9.01
2022-11-15T20:42:02.206Z,9.01
2022-11-15T20:52:05.224Z,8.99
2022-11-15T21:02:09.907Z,8.99
2022-11-15T21:12:13.713Z,9.00
2022-11-15T21:22:18.790Z,8.99
2022-11-15T21:32:21.897Z,8.97
2022-11-15T21:42:24.441Z,8.97
2022-11-15T21:52:26.920Z,8.96
2022-11-15T22:02:31.903Z,8.94
2022-11-15T22:12:34.941Z,8.94
2022-11-15T22:22:42.223Z,8.93
2022-11-15T22:32:46.048Z,8.93
2022-11-15T22:42:49.621Z,8.95
2022-11-15T22:52:53.280Z,8.93
2022-11-15T23:02:56.786Z,8.92
2022-11-15T23:13:19.412Z,8.91
2022-11-15T23:23:24.389Z,8.91
2022-11-15T23:33:45.839Z,8.91
2022-11-15T23:43:48.661Z,8.92
2022-11-15T23:53:52.157Z,8.92
